createdAt,value
2019-04-01T00:01:13.793Z,22.27
2019-04-01T00:03:49.893Z,22.07
2019-04-01T00:06:23.058Z,24.00
2019-04-01T00:08:55.817Z,24.87
2019-04-01T00:11:29.000Z,25.25
2019-04-01T00:14:02.344Z,27.60
2019-04-01T00:16:34.073Z,28.37
2019-04-01T00:19:06.084Z,27.70
2019-04-01T00:21:40.029Z,28.90
2019-04-01T00:24:14.174Z,28.47
2019-04-01T00:26:46.101Z,26.90
2019-04-01T00:29:18.050Z,28.20
2019-04-01T00:31:53.867Z,27.30
2019-04-01T00:34:28.655Z,29.85
2019-04-01T00:37:01.054Z,28.50
2019-04-01T00:39:34.581Z,26.57
2019-04-01T00:42:19.543Z,30.92
2019-04-01T00:44:52.212Z,29.87
2019-04-01T00:47:27.983Z,28.20
2019-04-01T00:50:04.159Z,31.07
2019-04-01T00:52:45.585Z,31.23
2019-04-01T00:55:20.873Z,31.00
2019-04-01T00:57:54.221Z,29.17
2019-04-01T01:00:28.349Z,29.63
2019-04-01T01:03:01.395Z,30.00
2019-04-01T01:05:35.241Z,30.47
2019-04-01T01:08:08.750Z,29.77
2019-04-01T01:10:45.751Z,33.73
2019-04-01T01:13:19.625Z,33.10
2019-04-01T01:15:52.916Z,30.10
2019-04-01T01:18:29.255Z,33.13
2019-04-01T01:21:02.220Z,31.40
2019-04-01T01:23:35.217Z,34.70
2019-04-01T01:26:11.072Z,33.57
2019-04-01T01:28:43.354Z,32.97
2019-04-01T01:31:22.924Z,33.20
2019-04-01T01:34:02.623Z,31.30
2019-04-01T01:36:35.594Z,32.00
2019-04-01T01:39:24.443Z,33.93
2019-04-01T01:42:07.044Z,34.77
2019-04-01T01:44:44.249Z,34.20
2019-04-01T01:47:26.229Z,34.40
2019-04-01T01:50:03.609Z,34.87
2019-04-01T01:52:48.434Z,34.57
2019-04-01T01:55:23.937Z,33.98
2019-04-01T01:57:55.271Z,35.57
2019-04-01T02:00:54.445Z,33.33
2019-04-01T02:03:27.682Z,35.60
2019-04-01T02:06:01.524Z,32.43
2019-04-01T02:08:34.378Z,32.73
2019-04-01T02:11:07.440Z,33.67
2019-04-01T02:13:40.443Z,33.37
2019-04-01T02:16:16.029Z,31.77
2019-04-01T02:18:48.495Z,33.17
2019-04-01T02:21:22.509Z,33.85
2019-04-01T02:23:55.463Z,31.53
2019-04-01T02:26:28.498Z,29.87
2019-04-01T02:29:01.495Z,30.80
2019-04-01T02:31:34.879Z,29.23
2019-04-01T02:34:09.263Z,29.30
2019-04-01T02:36:40.587Z,29.90
2019-04-01T02:39:13.807Z,31.07
2019-04-01T02:41:46.619Z,29.93
2019-04-01T02:44:19.928Z,29.27
2019-04-01T02:46:53.639Z,28.60
2019-04-01T02:49:25.668Z,29.00
2019-04-01T02:51:58.948Z,30.43
2019-04-01T02:54:33.578Z,29.90
2019-04-01T02:57:05.845Z,31.40
2019-04-01T02:59:37.610Z,31.40
2019-04-01T03:02:13.119Z,31.80
2019-04-01T03:04:45.437Z,30.33
2019-04-01T03:07:22.121Z,30.43
2019-04-01T03:09:56.130Z,31.25
2019-04-01T03:12:29.795Z,30.80
2019-04-01T03:15:04.773Z,31.60
2019-04-01T03:17:38.548Z,30.03
2019-04-01T03:20:14.314Z,30.40
2019-04-01T03:22:51.115Z,32.17
2019-04-01T03:25:23.980Z,30.57
2019-04-01T03:27:57.669Z,29.03
2019-04-01T03:30:31.304Z,31.10
2019-04-01T03:33:02.818Z,30.63
2019-04-01T03:35:40.936Z,30.23
2019-04-01T03:38:14.272Z,30.30
2019-04-01T03:40:46.988Z,28.97
2019-04-01T03:43:20.119Z,28.87
2019-04-01T03:46:01.686Z,30.60
2019-04-01T03:48:34.939Z,29.32
2019-04-01T03:51:08.246Z,31.23
2019-04-01T03:53:41.165Z,28.23
2019-04-01T03:56:13.038Z,30.80
2019-04-01T03:58:48.600Z,29.73
2019-04-01T04:01:22.117Z,29.23
2019-04-01T04:03:55.215Z,27.10
2019-04-01T04:06:28.034Z,29.17
2019-04-01T04:09:02.139Z,29.60
2019-04-01T04:11:35.771Z,29.20
2019-04-01T04:14:07.339Z,28.03
2019-04-01T04:16:40.977Z,28.97
2019-04-01T04:19:17.417Z,27.33
2019-04-01T04:21:48.947Z,26.67
2019-04-01T04:24:22.736Z,26.83
2019-04-01T04:26:57.440Z,26.50
2019-04-01T04:29:29.163Z,26.12
2019-04-01T04:32:02.325Z,26.47
2019-04-01T04:34:37.240Z,25.63
2019-04-01T04:37:11.207Z,26.67
2019-04-01T04:39:43.859Z,26.10
2019-04-01T04:42:19.772Z,25.50
2019-04-01T04:44:52.259Z,25.88
2019-04-01T04:47:27.172Z,23.65
2019-04-01T04:50:01.350Z,24.07
2019-04-01T04:52:34.240Z,22.03
2019-04-01T04:55:07.291Z,22.13
2019-04-01T04:57:43.100Z,21.00
2019-04-01T05:00:16.920Z,20.80
2019-04-01T05:02:49.307Z,21.30
2019-04-01T05:05:22.447Z,19.73
2019-04-01T05:07:57.257Z,20.60
2019-04-01T05:10:33.391Z,22.20
2019-04-01T05:13:07.982Z,22.93
2019-04-01T05:15:41.788Z,22.50
2019-04-01T05:18:15.971Z,21.00
2019-04-01T05:20:50.707Z,21.63
2019-04-01T05:23:25.686Z,21.62
2019-04-01T05:26:01.986Z,21.57
2019-04-01T05:28:35.310Z,20.50
2019-04-01T05:31:09.455Z,20.43
2019-04-01T05:33:55.209Z,22.47
2019-04-01T05:36:20.520Z,23.17
2019-04-01T05:38:54.555Z,20.97
2019-04-01T05:41:28.965Z,21.47
2019-04-01T05:44:02.384Z,22.97
2019-04-01T05:46:34.308Z,23.17
2019-04-01T05:49:09.388Z,22.10
2019-04-01T05:51:48.779Z,21.47
2019-04-01T05:54:20.420Z,20.77
2019-04-01T05:56:52.397Z,21.27
2019-04-01T05:59:28.952Z,20.57
2019-04-01T06:02:00.367Z,20.27
2019-04-01T06:04:31.974Z,18.43
2019-04-01T06:07:04.483Z,19.13
2019-04-01T06:09:37.797Z,19.52
2019-04-01T06:12:12.068Z,18.90
2019-04-01T06:14:48.074Z,18.57
2019-04-01T06:17:21.791Z,17.62
2019-04-01T06:19:54.547Z,16.13
2019-04-01T06:22:28.578Z,14.60
2019-04-01T06:25:01.879Z,15.70
2019-04-01T06:27:37.393Z,15.50
2019-04-01T06:30:10.813Z,14.50
2019-04-01T06:32:43.695Z,15.80
2019-04-01T06:35:17.714Z,14.70
2019-04-01T06:37:49.771Z,15.27
2019-04-01T06:40:22.164Z,14.83
2019-04-01T06:42:55.581Z,13.97
2019-04-01T06:45:28.168Z,14.65
2019-04-01T06:48:01.672Z,14.13
2019-04-01T06:50:36.354Z,14.47
2019-04-01T06:53:07.837Z,15.48
2019-04-01T06:55:41.857Z,14.90
2019-04-01T06:58:14.297Z,15.33
2019-04-01T07:00:47.143Z,15.63
2019-04-01T07:03:20.855Z,14.03
2019-04-01T07:05:53.130Z,14.50
2019-04-01T07:08:25.747Z,16.07
2019-04-01T07:10:59.642Z,14.10
2019-04-01T07:13:31.745Z,12.95
2019-04-01T07:16:16.211Z,13.63
2019-04-01T07:18:50.019Z,15.07
2019-04-01T07:21:23.326Z,14.53
2019-04-01T07:23:57.625Z,16.10
2019-04-01T07:26:32.328Z,15.93
2019-04-01T07:29:05.930Z,16.40
2019-04-01T07:31:39.446Z,16.83
2019-04-01T07:34:18.101Z,16.20
2019-04-01T07:36:56.566Z,16.70
2019-04-01T07:39:31.359Z,17.40
2019-04-01T07:42:03.360Z,17.90
2019-04-01T07:44:45.185Z,15.63
2019-04-01T07:47:23.035Z,16.50
2019-04-01T07:49:57.791Z,18.80
2019-04-01T07:52:32.242Z,16.50
2019-04-01T07:55:05.420Z,18.93
2019-04-01T07:57:42.221Z,17.57
2019-04-01T08:00:18.894Z,15.30
2019-04-01T08:02:55.676Z,19.00
2019-04-01T08:05:29.593Z,19.17
2019-04-01T08:08:03.584Z,18.50
2019-04-01T08:10:36.197Z,17.13
2019-04-01T08:13:09.808Z,17.70
2019-04-01T08:15:45.493Z,18.33
2019-04-01T08:18:17.916Z,18.83
2019-04-01T08:20:53.666Z,17.23
2019-04-01T08:23:28.624Z,18.48
2019-04-01T08:26:02.548Z,19.10
2019-04-01T08:28:35.143Z,17.90
2019-04-01T08:31:08.082Z,18.60
2019-04-01T08:33:42.035Z,18.47
2019-04-01T08:36:16.048Z,18.23
2019-04-01T08:38:50.257Z,19.63
2019-04-01T08:41:24.746Z,18.10
2019-04-01T08:43:56.356Z,20.20
2019-04-01T08:46:27.758Z,17.73
2019-04-01T08:48:59.808Z,17.87
2019-04-01T08:51:31.585Z,21.10
2019-04-01T08:54:04.140Z,19.20
2019-04-01T08:56:38.065Z,19.43
2019-04-01T08:59:09.154Z,19.37
2019-04-01T09:01:41.321Z,18.60
2019-04-01T09:04:14.415Z,18.47
2019-04-01T09:06:48.103Z,18.47
2019-04-01T09:09:20.206Z,18.23
2019-04-01T09:11:54.817Z,16.90
2019-04-01T09:14:32.470Z,17.53
2019-04-01T09:17:04.591Z,18.37
2019-04-01T09:19:40.303Z,19.23
2019-04-01T09:22:15.964Z,18.70
2019-04-01T09:24:49.595Z,18.67
2019-04-01T09:27:23.338Z,17.73
2019-04-01T09:29:56.365Z,18.50
2019-04-01T09:32:28.377Z,19.07
2019-04-01T09:35:01.451Z,20.93
2019-04-01T09:37:34.524Z,20.35
2019-04-01T09:40:07.323Z,19.53
2019-04-01T09:42:42.515Z,17.97
2019-04-01T09:45:14.603Z,19.60
2019-04-01T09:47:47.326Z,17.97
2019-04-01T09:50:21.396Z,19.37
2019-04-01T09:52:55.375Z,19.70
2019-04-01T09:55:28.508Z,18.75
2019-04-01T09:58:02.592Z,19.40
2019-04-01T10:00:36.145Z,18.87
2019-04-01T10:03:08.569Z,19.60
2019-04-01T10:05:40.543Z,17.47
2019-04-01T10:08:13.618Z,18.40
2019-04-01T10:10:48.391Z,19.60
2019-04-01T10:13:22.434Z,18.77
2019-04-01T10:15:55.125Z,18.90
2019-04-01T10:18:28.571Z,18.77
2019-04-01T10:21:05.666Z,19.40
2019-04-01T10:23:41.687Z,18.50
2019-04-01T10:26:13.867Z,19.03
2019-04-01T10:28:49.345Z,19.53
2019-04-01T10:31:21.514Z,19.12
2019-04-01T10:33:53.716Z,19.13
2019-04-01T10:36:28.439Z,19.20
2019-04-01T10:39:01.874Z,18.53
2019-04-01T10:41:36.992Z,18.80
2019-04-01T10:44:10.523Z,18.47
2019-04-01T10:46:43.861Z,19.03
2019-04-01T10:49:16.904Z,17.80
2019-04-01T10:51:49.867Z,18.30
2019-04-01T10:54:25.686Z,19.47
2019-04-01T10:56:59.079Z,18.87
2019-04-01T10:59:31.509Z,17.60
2019-04-01T11:02:03.853Z,17.30
2019-04-01T11:04:37.453Z,18.70
2019-04-01T11:07:10.955Z,17.53
2019-04-01T11:09:44.974Z,17.00
2019-04-01T11:12:17.626Z,16.37
2019-04-01T11:14:49.895Z,18.20
2019-04-01T11:17:25.047Z,18.25
2019-04-01T11:19:58.958Z,18.70
2019-04-01T11:22:31.952Z,17.90
2019-04-01T11:25:05.527Z,19.90
2019-04-01T11:27:38.244Z,17.20
2019-04-01T11:30:13.698Z,17.70
2019-04-01T11:32:44.839Z,16.67
2019-04-01T11:35:17.336Z,16.70
2019-04-01T11:37:52.182Z,16.87
2019-04-01T11:40:27.121Z,17.37
2019-04-01T11:43:05.087Z,17.77
2019-04-01T11:45:43.081Z,17.17
2019-04-01T11:48:19.036Z,17.10
2019-04-01T11:50:53.846Z,19.10
2019-04-01T11:53:26.981Z,17.50
2019-04-01T11:56:02.253Z,16.07
2019-04-01T11:58:35.038Z,16.40
2019-04-01T12:01:08.010Z,17.63
2019-04-01T12:03:42.779Z,17.77
2019-04-01T12:06:18.975Z,16.87
2019-04-01T12:08:52.931Z,16.53
2019-04-01T12:11:26.231Z,15.80
2019-04-01T12:14:05.112Z,17.43
2019-04-01T12:16:38.204Z,16.90
2019-04-01T12:19:11.223Z,16.80
2019-04-01T12:21:46.714Z,16.30
2019-04-01T12:24:21.696Z,17.13
2019-04-01T12:26:54.903Z,16.90
2019-04-01T12:29:29.140Z,16.10
2019-04-01T12:32:02.313Z,16.75
2019-04-01T12:34:35.491Z,17.47
2019-04-01T12:37:10.883Z,15.77
2019-04-01T12:39:48.628Z,15.80
2019-04-01T12:42:21.456Z,15.60
2019-04-01T12:44:54.167Z,16.00
2019-04-01T12:47:28.321Z,16.57
2019-04-01T12:50:06.768Z,17.37
2019-04-01T12:52:38.842Z,17.20
2019-04-01T12:55:14.379Z,16.27
2019-04-01T12:57:50.743Z,17.30
2019-04-01T13:00:24.070Z,15.80
2019-04-01T13:02:58.454Z,16.17
2019-04-01T13:05:31.997Z,15.20
2019-04-01T13:08:14.532Z,14.87
2019-04-01T13:10:48.680Z,16.10
2019-04-01T13:13:24.175Z,17.07
2019-04-01T13:15:56.304Z,16.53
2019-04-01T13:18:29.660Z,15.70
2019-04-01T13:21:07.029Z,15.67
2019-04-01T13:23:50.108Z,17.20
2019-04-01T13:26:21.566Z,15.43
2019-04-01T13:28:54.947Z,16.03
2019-04-01T13:31:33.304Z,15.00
2019-04-01T13:34:05.471Z,15.03
2019-04-01T13:36:38.906Z,16.10
2019-04-01T13:39:19.706Z,15.17
2019-04-01T13:42:00.139Z,16.13
2019-04-01T13:44:37.183Z,15.50
2019-04-01T13:47:09.060Z,16.13
2019-04-01T13:49:42.481Z,15.67
2019-04-01T13:52:21.971Z,14.60
2019-04-01T13:55:12.215Z,14.43
2019-04-01T13:58:01.763Z,15.67
2019-04-01T14:00:37.700Z,14.17
2019-04-01T14:03:13.399Z,14.03
2019-04-01T14:05:51.361Z,14.70
2019-04-01T14:08:31.131Z,13.20
2019-04-01T14:11:25.328Z,12.50
2019-04-01T14:14:07.925Z,14.60
2019-04-01T14:16:44.182Z,12.10
2019-04-01T14:19:22.511Z,13.40
2019-04-01T14:21:59.816Z,13.40
2019-04-01T14:24:34.355Z,13.43
2019-04-01T14:27:10.140Z,13.77
2019-04-01T14:29:48.465Z,13.13
2019-04-01T14:32:23.696Z,12.93
2019-04-01T14:34:58.331Z,12.10
2019-04-01T14:37:34.521Z,12.18
2019-04-01T14:40:18.283Z,13.80
2019-04-01T14:42:51.925Z,11.63
2019-04-01T14:45:27.714Z,12.45
2019-04-01T14:48:08.873Z,12.10
2019-04-01T14:50:44.723Z,11.80
2019-04-01T14:53:30.111Z,11.10
2019-04-01T14:56:02.686Z,11.40
2019-04-01T14:58:38.195Z,11.37
2019-04-01T15:01:18.154Z,12.40
2019-04-01T15:03:54.228Z,11.90
2019-04-01T15:06:28.943Z,12.20
2019-04-01T15:09:02.872Z,11.23
2019-04-01T15:11:58.384Z,10.83
2019-04-01T15:14:33.253Z,10.70
2019-04-01T15:17:09.337Z,11.90
2019-04-01T15:19:43.501Z,10.07
2019-04-01T15:22:27.924Z,10.90
2019-04-01T15:25:03.799Z,12.53
2019-04-01T15:27:42.447Z,10.93
2019-04-01T15:30:16.621Z,11.30
2019-04-01T15:32:54.911Z,11.70
2019-04-01T15:35:26.385Z,10.80
2019-04-01T15:38:02.875Z,12.80
2019-04-01T15:40:35.788Z,10.87
2019-04-01T15:43:13.179Z,10.10
2019-04-01T15:46:03.902Z,10.37
2019-04-01T15:48:38.783Z,10.10
2019-04-01T15:51:18.662Z,10.07
2019-04-01T15:53:52.559Z,10.07
2019-04-01T15:56:26.573Z,9.97
2019-04-01T15:59:08.097Z,9.25
2019-04-01T16:01:50.484Z,10.43
2019-04-01T16:04:37.138Z,9.60
2019-04-01T16:07:22.449Z,10.27
2019-04-01T16:09:59.226Z,8.93
2019-04-01T16:12:35.230Z,9.00
2019-04-01T16:15:26.027Z,9.60
2019-04-01T16:18:12.117Z,9.00
2019-04-01T16:20:52.637Z,9.57
2019-04-01T16:23:37.803Z,11.78
2019-04-01T16:26:15.793Z,9.70
2019-04-01T16:28:58.253Z,8.80
2019-04-01T16:31:34.131Z,8.87
2019-04-01T16:34:08.570Z,9.37
2019-04-01T16:36:47.236Z,8.20
2019-04-01T16:39:45.666Z,8.00
2019-04-01T16:42:21.216Z,8.93
2019-04-01T16:45:05.356Z,9.20
2019-04-01T16:48:09.444Z,8.53
2019-04-01T16:50:44.410Z,9.10
2019-04-01T16:53:31.498Z,9.30
2019-04-01T16:56:07.170Z,8.33
2019-04-01T16:58:47.882Z,9.10
2019-04-01T17:01:25.228Z,8.70
2019-04-01T17:04:37.638Z,8.47
2019-04-01T17:07:13.864Z,9.10
2019-04-01T17:09:59.854Z,8.50
2019-04-01T17:13:04.664Z,10.07
2019-04-01T17:15:44.538Z,8.30
2019-04-01T17:18:20.668Z,9.33
2019-04-01T17:21:02.531Z,7.93
2019-04-01T17:23:41.913Z,9.40
2019-04-01T17:26:45.107Z,7.93
2019-04-01T17:29:53.475Z,9.50
2019-04-01T17:32:29.248Z,10.70
2019-04-01T17:35:02.142Z,13.27
2019-04-01T17:37:49.218Z,13.13
2019-04-01T17:40:33.207Z,9.70
2019-04-01T17:43:24.628Z,13.07
2019-04-01T17:46:06.864Z,12.50
2019-04-01T17:48:42.968Z,9.03
2019-04-01T17:51:17.263Z,8.53
2019-04-01T17:54:00.881Z,8.93
2019-04-01T17:56:35.519Z,9.10
2019-04-01T18:00:04.562Z,10.47
2019-04-01T18:02:47.425Z,12.73
2019-04-01T18:05:25.552Z,10.10
2019-04-01T18:08:09.031Z,10.40
2019-04-01T18:10:53.618Z,9.50
2019-04-01T18:13:33.678Z,11.00
2019-04-01T18:16:07.381Z,8.77
2019-04-01T18:18:47.335Z,10.40
2019-04-01T18:21:32.779Z,9.37
2019-04-01T18:24:17.000Z,9.17
2019-04-01T18:27:23.486Z,10.53
2019-04-01T18:30:14.244Z,9.90
2019-04-01T18:33:25.524Z,9.07
2019-04-01T18:36:52.086Z,10.80
2019-04-01T18:40:01.403Z,10.90
2019-04-01T18:43:00.017Z,11.10
2019-04-01T18:46:24.843Z,10.10
2019-04-01T18:49:57.363Z,11.37
2019-04-01T18:53:11.559Z,13.93
2019-04-01T18:56:39.671Z,12.43
2019-04-01T19:03:11.982Z,9.90
2019-04-01T19:06:36.085Z,8.70
2019-04-01T19:09:32.495Z,8.60
2019-04-01T19:12:31.841Z,9.05
2019-04-01T19:15:27.717Z,7.60
2019-04-01T19:22:59.454Z,8.10
2019-04-01T19:25:52.882Z,7.50
2019-04-01T19:28:48.297Z,6.85
2019-04-01T19:31:58.284Z,6.70
2019-04-01T19:35:15.833Z,7.40
2019-04-01T19:38:51.768Z,6.87
2019-04-01T19:41:37.727Z,7.85
2019-04-01T19:44:38.558Z,7.87
2019-04-01T19:47:45.024Z,7.20
2019-04-01T19:50:54.250Z,6.97
2019-04-01T19:53:58.087Z,8.03
2019-04-01T19:57:01.056Z,7.50
2019-04-01T20:00:43.952Z,6.90
2019-04-01T20:03:34.392Z,7.43
2019-04-01T20:06:59.980Z,6.10
2019-04-01T20:10:18.440Z,6.50
2019-04-01T20:12:50.914Z,6.20
2019-04-01T20:15:48.618Z,6.07
2019-04-01T20:18:55.736Z,6.20
2019-04-01T20:21:51.058Z,6.45
2019-04-01T20:25:00.724Z,6.80
2019-04-01T20:27:55.885Z,7.73
2019-04-01T20:31:02.171Z,6.27
2019-04-01T20:33:41.918Z,6.80
2019-04-01T20:36:32.503Z,4.63
2019-04-01T20:39:29.749Z,5.70
2019-04-01T20:42:24.905Z,5.13
2019-04-01T20:45:13.510Z,4.10
2019-04-01T20:47:58.320Z,5.70
2019-04-01T20:50:51.555Z,5.27
2019-04-01T20:53:39.371Z,5.40
2019-04-01T20:56:14.174Z,5.50
2019-04-01T20:58:56.962Z,5.93
2019-04-01T21:01:39.643Z,5.50
2019-04-01T21:04:49.906Z,5.03
2019-04-01T21:08:02.824Z,4.70
2019-04-01T21:10:28.639Z,5.30
2019-04-01T21:13:10.410Z,4.72
2019-04-01T21:15:47.122Z,4.92
2019-04-01T21:18:22.771Z,5.97
2019-04-01T21:21:03.199Z,5.70
2019-04-01T21:23:41.337Z,6.27
2019-04-01T21:26:21.005Z,4.90
2019-04-01T21:29:01.219Z,5.23
2019-04-01T21:31:40.324Z,5.10
2019-04-01T21:34:18.008Z,5.20
2019-04-01T21:37:06.277Z,5.10
2019-04-01T21:39:54.341Z,5.77
2019-04-01T21:43:08.186Z,6.00
2019-04-01T21:45:58.325Z,5.00
2019-04-01T21:48:42.658Z,4.67
2019-04-01T21:51:28.557Z,4.93
2019-04-01T21:54:10.694Z,5.00
2019-04-01T21:56:56.951Z,4.55
2019-04-01T21:59:44.157Z,4.77
2019-04-01T22:02:36.383Z,4.73
2019-04-01T22:05:22.098Z,5.40
2019-04-01T22:08:07.188Z,4.50
2019-04-01T22:11:16.646Z,5.00
2019-04-01T22:14:07.786Z,5.10
2019-04-01T22:16:48.805Z,5.60
2019-04-01T22:19:54.116Z,4.70
2019-04-01T22:23:07.932Z,5.27
2019-04-01T22:26:02.201Z,4.83
2019-04-01T22:28:38.167Z,5.43
2019-04-01T22:31:27.635Z,5.17
2019-04-01T22:34:08.268Z,5.27
2019-04-01T22:36:52.247Z,4.77
2019-04-01T22:39:57.397Z,4.53
2019-04-01T22:42:37.019Z,4.70
2019-04-01T22:45:23.249Z,5.30
2019-04-01T22:48:14.674Z,4.90
2019-04-01T22:50:58.398Z,5.50
2019-04-01T22:53:40.313Z,4.97
2019-04-01T22:56:21.987Z,4.90
2019-04-01T22:58:59.094Z,4.83
2019-04-01T23:01:45.036Z,6.20
2019-04-01T23:04:21.085Z,5.20
2019-04-01T23:06:56.100Z,5.93
2019-04-01T23:09:37.212Z,4.77
2019-04-01T23:12:10.306Z,5.30
2019-04-01T23:14:48.255Z,5.57
2019-04-01T23:17:28.693Z,5.15
2019-04-01T23:20:00.916Z,5.43
2019-04-01T23:22:52.792Z,5.40
2019-04-01T23:25:35.044Z,5.03
2019-04-01T23:28:34.738Z,5.22
2019-04-01T23:31:28.860Z,4.75
2019-04-01T23:34:19.124Z,5.50
2019-04-01T23:37:00.523Z,5.80
2019-04-01T23:40:06.669Z,5.10
2019-04-01T23:42:56.446Z,4.60
2019-04-01T23:45:54.945Z,6.00
2019-04-01T23:59:37.154Z,5.90
